createdAt,value
2023-01-23T00:09:33.344Z,1030.38
2023-01-23T00:10:33.168Z,1030.42
2023-01-23T00:11:33.116Z,1030.41
2023-01-23T00:12:33.064Z,1030.38
2023-01-23T00:13:33.001Z,1030.40
2023-01-23T00:14:32.950Z,1030.39
2023-01-23T00:15:32.938Z,1030.42
2023-01-23T00:16:32.852Z,1030.41
2023-01-23T00:17:32.792Z,1030.45
2023-01-23T00:18:32.743Z,1030.48
2023-01-23T00:19:32.689Z,1030.46
2023-01-23T00:20:32.639Z,1030.41
2023-01-23T00:21:32.591Z,1030.44
2023-01-23T00:22:32.538Z,1030.46
2023-01-23T00:23:32.489Z,1030.45
2023-01-23T00:24:32.438Z,1030.46
2023-01-23T00:25:32.505Z,1030.43
2023-01-23T00:26:32.341Z,1030.44
2023-01-23T00:27:32.288Z,1030.38
2023-01-23T00:28:32.248Z,1030.40
2023-01-23T00:29:32.190Z,1030.43
2023-01-23T00:30:32.206Z,1030.43
2023-01-23T00:31:32.246Z,1030.40
2023-01-23T00:32:32.050Z,1030.43
2023-01-23T00:33:31.999Z,1030.41
2023-01-23T00:34:31.944Z,1030.41
2023-01-23T00:35:31.896Z,1030.41
2023-01-23T00:36:31.850Z,1030.39
2023-01-23T00:37:31.796Z,1030.39
2023-01-23T00:38:31.760Z,1030.38
2023-01-23T00:39:31.709Z,1030.38
2023-01-23T00:40:31.657Z,1030.39
2023-01-23T00:41:31.710Z,1030.35
2023-01-23T00:42:31.771Z,1030.36
2023-01-23T00:43:31.518Z,1030.37
2023-01-23T00:44:31.471Z,1030.32
2023-01-23T00:45:31.409Z,1030.32
2023-01-23T00:46:31.471Z,1030.30
2023-01-23T00:47:31.317Z,1030.32
2023-01-23T00:48:31.264Z,1030.33
2023-01-23T00:49:31.215Z,1030.28
2023-01-23T00:50:31.166Z,1030.35
2023-01-23T00:51:31.145Z,1030.32
2023-01-23T00:52:31.083Z,1030.40
2023-01-23T00:53:31.023Z,1030.35
2023-01-23T00:54:30.975Z,1030.39
2023-01-23T00:55:30.930Z,1030.38
2023-01-23T00:56:30.877Z,1030.40
2023-01-23T00:57:30.940Z,1030.45
2023-01-23T00:58:30.787Z,1030.43
2023-01-23T00:59:30.731Z,1030.44
2023-01-23T01:00:30.685Z,1030.49
2023-01-23T01:01:30.646Z,1030.48
2023-01-23T01:02:30.681Z,1030.45
2023-01-23T01:03:30.543Z,1030.51
2023-01-23T01:05:30.446Z,1030.46
2023-01-23T01:06:30.406Z,1030.47
2023-01-23T01:07:30.350Z,1030.48
2023-01-23T01:08:30.329Z,1030.52
2023-01-23T01:09:30.335Z,1030.49
2023-01-23T01:10:30.224Z,1030.51
2023-01-23T01:11:30.170Z,1030.55
2023-01-23T01:12:30.107Z,1030.52
2023-01-23T01:13:30.180Z,1030.56
2023-01-23T01:14:30.020Z,1030.54
2023-01-23T01:15:29.991Z,1030.55
2023-01-23T01:16:29.995Z,1030.55
2023-01-23T01:17:29.875Z,1030.57
2023-01-23T01:18:29.831Z,1030.59
2023-01-23T01:19:29.774Z,1030.64
2023-01-23T01:20:29.726Z,1030.65
2023-01-23T01:21:29.753Z,1030.58
2023-01-23T01:22:29.631Z,1030.59
2023-01-23T01:23:29.586Z,1030.61
2023-01-23T01:24:29.549Z,1030.63
2023-01-23T01:25:29.489Z,1030.67
2023-01-23T01:26:29.439Z,1030.69
2023-01-23T01:27:29.392Z,1030.69
2023-01-23T01:28:29.342Z,1030.70
2023-01-23T01:29:29.414Z,1030.75
2023-01-23T01:30:29.253Z,1030.80
2023-01-23T01:31:29.343Z,1030.76
2023-01-23T01:32:29.156Z,1030.73
2023-01-23T01:33:29.115Z,1030.76
2023-01-23T01:34:29.058Z,1030.79
2023-01-23T01:35:29.010Z,1030.76
2023-01-23T01:36:28.970Z,1030.77
2023-01-23T01:37:28.917Z,1030.76
2023-01-23T01:38:28.867Z,1030.81
2023-01-23T01:39:28.837Z,1030.87
2023-01-23T01:40:28.770Z,1030.84
2023-01-23T01:41:28.721Z,1030.86
2023-01-23T01:42:28.678Z,1030.86
2023-01-23T01:43:28.674Z,1030.96
2023-01-23T01:44:28.607Z,1030.89
2023-01-23T01:45:28.648Z,1030.90
2023-01-23T01:46:28.549Z,1030.89
2023-01-23T01:47:28.493Z,1030.89
2023-01-23T01:48:28.467Z,1030.89
2023-01-23T01:49:28.345Z,1030.90
2023-01-23T01:50:28.292Z,1030.87
2023-01-23T01:51:28.451Z,1030.91
2023-01-23T01:52:28.195Z,1030.95
2023-01-23T01:53:28.156Z,1030.93
2023-01-23T01:54:28.102Z,1030.97
2023-01-23T01:55:28.054Z,1030.94
2023-01-23T01:56:28.007Z,1030.92
2023-01-23T01:57:27.960Z,1030.90
2023-01-23T01:58:28.112Z,1030.93
2023-01-23T01:59:27.866Z,1030.91
2023-01-23T02:00:27.845Z,1030.91
2023-01-23T02:01:27.881Z,1030.91
2023-01-23T02:02:27.721Z,1030.93
2023-01-23T02:03:27.676Z,1030.91
2023-01-23T02:04:27.623Z,1030.91
2023-01-23T02:05:27.577Z,1030.87
2023-01-23T02:06:27.539Z,1030.89
2023-01-23T02:07:27.486Z,1030.86
2023-01-23T02:08:27.436Z,1030.91
2023-01-23T02:09:27.389Z,1030.86
2023-01-23T02:10:27.340Z,1030.90
2023-01-23T02:11:27.293Z,1030.92
2023-01-23T02:12:27.245Z,1030.92
2023-01-23T02:13:27.206Z,1030.91
2023-01-23T02:14:27.148Z,1030.89
2023-01-23T02:15:27.113Z,1030.89
2023-01-23T02:16:27.118Z,1030.90
2023-01-23T02:17:27.152Z,1030.89
2023-01-23T02:18:26.959Z,1030.90
2023-01-23T02:19:26.907Z,1030.94
2023-01-23T02:20:26.870Z,1030.94
2023-01-23T02:21:26.815Z,1030.94
2023-01-23T02:22:26.767Z,1030.92
2023-01-23T02:23:26.716Z,1030.92
2023-01-23T02:24:26.670Z,1030.91
2023-01-23T02:25:26.822Z,1030.93
2023-01-23T02:26:26.574Z,1030.91
2023-01-23T02:27:26.527Z,1030.95
2023-01-23T02:28:26.475Z,1031.01
2023-01-23T02:29:26.437Z,1030.95
2023-01-23T02:30:26.380Z,1030.97
2023-01-23T02:31:26.442Z,1030.94
2023-01-23T02:32:26.283Z,1030.95
2023-01-23T02:33:26.354Z,1030.95
2023-01-23T02:34:26.241Z,1030.97
2023-01-23T02:35:26.148Z,1030.93
2023-01-23T02:36:26.094Z,1030.88
2023-01-23T02:37:26.052Z,1030.92
2023-01-23T02:38:25.998Z,1030.90
2023-01-23T02:39:25.952Z,1030.90
2023-01-23T02:40:25.908Z,1030.87
2023-01-23T02:41:25.892Z,1030.83
2023-01-23T02:42:25.830Z,1030.82
2023-01-23T02:43:25.760Z,1030.76
2023-01-23T02:44:25.718Z,1030.74
2023-01-23T02:45:25.758Z,1030.66
2023-01-23T02:46:25.620Z,1030.56
2023-01-23T02:47:25.576Z,1030.56
2023-01-23T02:48:25.525Z,1030.49
2023-01-23T02:49:25.598Z,1030.47
2023-01-23T02:50:25.423Z,1030.45
2023-01-23T02:51:25.590Z,1030.43
2023-01-23T02:52:25.329Z,1030.48
2023-01-23T02:53:25.281Z,1030.48
2023-01-23T02:54:25.229Z,1030.44
2023-01-23T02:55:25.183Z,1030.39
2023-01-23T02:56:25.134Z,1030.36
2023-01-23T02:57:25.089Z,1030.39
2023-01-23T02:58:25.038Z,1030.42
2023-01-23T02:59:24.993Z,1030.47
2023-01-23T03:00:24.945Z,1030.46
2023-01-23T03:01:24.904Z,1030.49
2023-01-23T03:02:24.909Z,1030.48
2023-01-23T03:03:24.811Z,1030.55
2023-01-23T03:04:24.755Z,1030.54
2023-01-23T03:05:24.830Z,1030.61
2023-01-23T03:06:24.658Z,1030.60
2023-01-23T03:07:24.609Z,1030.60
2023-01-23T03:08:24.577Z,1030.59
2023-01-23T03:09:24.523Z,1030.58
2023-01-23T03:10:24.466Z,1030.67
2023-01-23T03:11:24.422Z,1030.64
2023-01-23T03:12:24.366Z,1030.69
2023-01-23T03:13:24.321Z,1030.72
2023-01-23T03:14:24.292Z,1030.73
2023-01-23T03:15:24.229Z,1030.75
2023-01-23T03:16:24.205Z,1030.78
2023-01-23T03:17:24.131Z,1030.78
2023-01-23T03:18:24.079Z,1030.81
2023-01-23T03:19:24.047Z,1030.80
2023-01-23T03:20:23.989Z,1030.80
2023-01-23T03:21:24.049Z,1030.74
2023-01-23T03:22:23.889Z,1030.76
2023-01-23T03:24:23.795Z,1030.86
2023-01-23T03:25:23.753Z,1030.87
2023-01-23T03:26:23.697Z,1030.89
2023-01-23T03:27:23.646Z,1030.89
2023-01-23T03:28:23.601Z,1030.95
2023-01-23T03:29:23.553Z,1030.91
2023-01-23T03:30:23.507Z,1030.87
2023-01-23T03:31:23.554Z,1030.87
2023-01-23T03:32:23.410Z,1030.90
2023-01-23T03:33:23.366Z,1030.87
2023-01-23T03:34:23.314Z,1030.88
2023-01-23T03:35:23.266Z,1030.92
2023-01-23T03:36:23.220Z,1030.93
2023-01-23T03:37:23.287Z,1030.92
2023-01-23T03:38:23.123Z,1030.93
2023-01-23T03:39:23.071Z,1030.93
2023-01-23T03:40:23.039Z,1030.91
2023-01-23T03:41:22.978Z,1030.84
2023-01-23T03:42:22.930Z,1030.97
2023-01-23T03:43:22.880Z,1030.99
2023-01-23T03:44:22.837Z,1030.98
2023-01-23T03:45:22.801Z,1031.03
2023-01-23T03:46:22.741Z,1031.01
2023-01-23T03:47:22.694Z,1031.02
2023-01-23T03:48:22.641Z,1031.07
2023-01-23T03:49:22.595Z,1031.05
2023-01-23T03:50:22.656Z,1031.04
2023-01-23T03:51:22.599Z,1031.02
2023-01-23T03:52:22.450Z,1031.03
2023-01-23T03:53:22.428Z,1031.03
2023-01-23T03:54:22.353Z,1031.03
2023-01-23T03:55:22.318Z,1031.04
2023-01-23T03:56:22.257Z,1031.02
2023-01-23T03:57:22.208Z,1031.07
2023-01-23T03:58:22.161Z,1031.06
2023-01-23T03:59:22.111Z,1031.09
2023-01-23T04:00:22.355Z,1031.10
2023-01-23T04:01:22.145Z,1031.05
2023-01-23T04:02:21.973Z,1031.07
2023-01-23T04:03:21.920Z,1031.07
2023-01-23T04:04:21.876Z,1031.05
2023-01-23T04:05:21.826Z,1031.02
2023-01-23T04:06:21.782Z,1031.04
2023-01-23T04:07:21.726Z,1031.02
2023-01-23T04:08:21.681Z,1031.05
2023-01-23T04:09:21.945Z,1031.05
2023-01-23T04:10:21.938Z,1031.07
2023-01-23T04:11:21.538Z,1031.10
2023-01-23T04:12:21.489Z,1031.05
2023-01-23T04:13:21.440Z,1031.06
2023-01-23T04:14:21.403Z,1031.11
2023-01-23T04:15:21.347Z,1031.11
2023-01-23T04:16:21.327Z,1031.09
2023-01-23T04:17:21.254Z,1031.14
2023-01-23T04:18:21.200Z,1031.12
2023-01-23T04:19:21.151Z,1031.10
2023-01-23T04:20:21.437Z,1031.10
2023-01-23T04:21:21.053Z,1031.10
2023-01-23T04:22:21.035Z,1031.15
2023-01-23T04:23:20.955Z,1031.12
2023-01-23T04:24:20.917Z,1031.14
2023-01-23T04:25:20.992Z,1031.12
2023-01-23T04:26:20.826Z,1031.09
2023-01-23T04:27:20.772Z,1031.12
2023-01-23T04:28:20.719Z,1031.12
2023-01-23T04:29:20.679Z,1031.08
2023-01-23T04:30:20.907Z,1031.07
2023-01-23T04:31:20.725Z,1031.03
2023-01-23T04:32:20.523Z,1031.01
2023-01-23T04:33:20.482Z,1031.05
2023-01-23T04:34:20.429Z,1031.05
2023-01-23T04:35:20.381Z,1031.05
2023-01-23T04:36:20.332Z,1031.05
2023-01-23T04:37:20.290Z,1031.09
2023-01-23T04:38:20.240Z,1031.09
2023-01-23T04:39:20.191Z,1031.10
2023-01-23T04:40:20.468Z,1031.10
2023-01-23T04:41:20.209Z,1031.09
2023-01-23T04:42:20.046Z,1031.10
2023-01-23T04:43:19.996Z,1031.07
2023-01-23T04:44:19.993Z,1031.05
2023-01-23T04:45:19.900Z,1031.11
2023-01-23T04:46:19.929Z,1031.04
2023-01-23T04:47:19.815Z,1031.05
2023-01-23T04:48:19.761Z,1031.09
2023-01-23T04:49:19.708Z,1031.10
2023-01-23T04:50:20.010Z,1031.09
2023-01-23T04:51:19.653Z,1031.09
2023-01-23T04:52:19.559Z,1031.07
2023-01-23T04:53:19.520Z,1031.02
2023-01-23T04:54:19.467Z,1031.04
2023-01-23T04:55:19.419Z,1031.06
2023-01-23T04:56:19.368Z,1031.05
2023-01-23T04:57:19.450Z,1031.04
2023-01-23T04:58:19.281Z,1031.06
2023-01-23T04:59:19.225Z,1031.03
2023-01-23T05:00:19.615Z,1031.04
2023-01-23T05:01:19.214Z,1031.06
2023-01-23T05:02:19.116Z,1031.04
2023-01-23T05:03:19.033Z,1031.04
2023-01-23T05:04:18.982Z,1031.03
2023-01-23T05:05:18.944Z,1031.01
2023-01-23T05:06:18.885Z,1031.03
2023-01-23T05:07:18.849Z,1031.02
2023-01-23T05:08:18.793Z,1031.06
2023-01-23T05:09:18.746Z,1031.10
2023-01-23T05:10:18.953Z,1031.10
2023-01-23T05:11:18.647Z,1031.09
2023-01-23T05:12:18.597Z,1031.13
2023-01-23T05:13:18.731Z,1031.10
2023-01-23T05:14:18.705Z,1031.10
2023-01-23T05:15:18.458Z,1031.15
2023-01-23T05:16:18.411Z,1031.18
2023-01-23T05:17:18.363Z,1031.15
2023-01-23T05:18:18.316Z,1031.14
2023-01-23T05:19:18.264Z,1031.12
2023-01-23T05:20:18.456Z,1031.16
2023-01-23T05:21:18.176Z,1031.14
2023-01-23T05:22:18.123Z,1031.13
2023-01-23T05:23:18.072Z,1031.13
2023-01-23T05:24:18.026Z,1031.13
2023-01-23T05:25:17.975Z,1031.21
2023-01-23T05:26:17.927Z,1031.17
2023-01-23T05:27:17.877Z,1031.18
2023-01-23T05:28:17.830Z,1031.16
2023-01-23T05:29:17.898Z,1031.20
2023-01-23T05:30:18.025Z,1031.22
2023-01-23T05:31:17.806Z,1031.27
2023-01-23T05:32:17.643Z,1031.24
2023-01-23T05:33:17.607Z,1031.26
2023-01-23T05:34:17.541Z,1031.25
2023-01-23T05:35:17.493Z,1031.23
2023-01-23T05:36:18.623Z,1031.27
2023-01-23T05:37:17.608Z,1031.26
2023-01-23T05:38:17.349Z,1031.29
2023-01-23T05:39:17.300Z,1031.32
2023-01-23T05:40:17.369Z,1031.31
2023-01-23T05:41:17.257Z,1031.29
2023-01-23T05:42:17.208Z,1031.32
2023-01-23T05:43:17.226Z,1031.31
2023-01-23T05:44:17.095Z,1031.28
2023-01-23T05:45:17.142Z,1031.29
2023-01-23T05:46:17.030Z,1031.30
2023-01-23T05:47:16.916Z,1031.33
2023-01-23T05:48:16.877Z,1031.32
2023-01-23T05:49:16.822Z,1031.34
2023-01-23T05:50:16.773Z,1031.32
2023-01-23T05:51:16.840Z,1031.38
2023-01-23T05:52:16.673Z,1031.37
2023-01-23T05:53:16.634Z,1031.38
2023-01-23T05:54:16.578Z,1031.36
2023-01-23T05:55:16.537Z,1031.39
2023-01-23T05:56:16.487Z,1031.36
2023-01-23T05:57:16.436Z,1031.37
2023-01-23T05:58:16.386Z,1031.35
2023-01-23T05:59:16.343Z,1031.41
2023-01-23T06:00:16.297Z,1031.40
2023-01-23T06:01:16.375Z,1031.43
2023-01-23T06:02:16.247Z,1031.43
2023-01-23T06:03:16.183Z,1031.41
2023-01-23T06:04:16.104Z,1031.44
2023-01-23T06:05:16.055Z,1031.39
2023-01-23T06:06:16.007Z,1031.40
2023-01-23T06:07:15.954Z,1031.42
2023-01-23T06:08:15.909Z,1031.45
2023-01-23T06:09:15.861Z,1031.48
2023-01-23T06:10:15.811Z,1031.47
2023-01-23T06:11:15.784Z,1031.52
2023-01-23T06:12:15.717Z,1031.49
2023-01-23T06:13:15.666Z,1031.49
2023-01-23T06:14:15.616Z,1031.51
2023-01-23T06:15:15.574Z,1031.50
2023-01-23T06:16:15.558Z,1031.53
2023-01-23T06:17:15.596Z,1031.53
2023-01-23T06:18:15.466Z,1031.53
2023-01-23T06:19:15.379Z,1031.58
2023-01-23T06:20:15.325Z,1031.62
2023-01-23T06:21:15.286Z,1031.58
2023-01-23T06:22:15.240Z,1031.60
2023-01-23T06:23:15.206Z,1031.61
2023-01-23T06:24:15.133Z,1031.63
2023-01-23T06:25:15.091Z,1031.63
2023-01-23T06:26:15.045Z,1031.59
2023-01-23T06:27:14.991Z,1031.62
2023-01-23T06:28:14.946Z,1031.65
2023-01-23T06:29:14.896Z,1031.65
2023-01-23T06:30:14.860Z,1031.66
2023-01-23T06:31:14.900Z,1031.66
2023-01-23T06:32:14.749Z,1031.67
2023-01-23T06:33:14.822Z,1031.66
2023-01-23T06:34:14.657Z,1031.66
2023-01-23T06:35:14.682Z,1031.69
2023-01-23T06:36:14.558Z,1031.68
2023-01-23T06:37:14.521Z,1031.68
2023-01-23T06:38:14.466Z,1031.68
2023-01-23T06:39:14.416Z,1031.69
2023-01-23T06:40:14.367Z,1031.72
2023-01-23T06:41:14.323Z,1031.75
2023-01-23T06:42:14.278Z,1031.74
2023-01-23T06:43:14.226Z,1031.79
2023-01-23T06:45:14.125Z,1031.79
2023-01-23T06:46:14.112Z,1031.82
2023-01-23T06:47:14.037Z,1031.79
2023-01-23T06:48:14.014Z,1031.82
2023-01-23T06:49:14.051Z,1031.80
2023-01-23T06:50:13.889Z,1031.81
2023-01-23T06:51:14.019Z,1031.90
2023-01-23T06:52:13.799Z,1031.88
2023-01-23T06:53:13.741Z,1031.91
2023-01-23T06:54:13.692Z,1031.90
2023-01-23T06:55:14.705Z,1031.96
2023-01-23T06:56:13.599Z,1031.97
2023-01-23T06:57:13.553Z,1031.96
2023-01-23T06:58:13.502Z,1032.01
2023-01-23T06:59:13.456Z,1032.03
2023-01-23T07:00:13.457Z,1032.02
2023-01-23T07:01:13.412Z,1032.02
2023-01-23T07:02:13.314Z,1032.05
2023-01-23T07:03:13.324Z,1032.03
2023-01-23T07:04:13.214Z,1032.07
2023-01-23T07:05:13.289Z,1032.06
2023-01-23T07:06:13.136Z,1032.07
2023-01-23T07:07:13.072Z,1032.08
2023-01-23T07:08:13.047Z,1032.09
2023-01-23T07:09:12.972Z,1032.06
2023-01-23T07:10:12.925Z,1032.10
2023-01-23T07:11:12.908Z,1032.12
2023-01-23T07:12:12.825Z,1032.11
2023-01-23T07:13:12.777Z,1032.12
2023-01-23T07:14:12.730Z,1032.11
2023-01-23T07:15:12.685Z,1032.13
2023-01-23T07:16:12.720Z,1032.15
2023-01-23T07:17:12.592Z,1032.17
2023-01-23T07:18:12.540Z,1032.15
2023-01-23T07:19:12.489Z,1032.19
2023-01-23T07:20:12.444Z,1032.15
2023-01-23T07:21:12.504Z,1032.18
2023-01-23T07:22:12.345Z,1032.20
2023-01-23T07:23:12.298Z,1032.19
2023-01-23T07:24:12.249Z,1032.22
2023-01-23T07:25:12.205Z,1032.27
2023-01-23T07:26:12.162Z,1032.31
2023-01-23T07:27:12.108Z,1032.36
2023-01-23T07:28:12.078Z,1032.38
2023-01-23T07:29:12.013Z,1032.39
2023-01-23T07:30:11.963Z,1032.38
2023-01-23T07:31:12.046Z,1032.42
2023-01-23T07:32:11.866Z,1032.36
2023-01-23T07:33:11.818Z,1032.38
2023-01-23T07:34:11.769Z,1032.39
2023-01-23T07:35:11.720Z,1032.39
2023-01-23T07:36:11.676Z,1032.36
2023-01-23T07:37:11.653Z,1032.38
2023-01-23T07:38:11.578Z,1032.39
2023-01-23T07:39:11.529Z,1032.43
2023-01-23T07:40:11.690Z,1032.46
2023-01-23T07:41:11.432Z,1032.43
2023-01-23T07:42:11.394Z,1032.46
2023-01-23T07:43:11.345Z,1032.43
2023-01-23T07:44:11.290Z,1032.42
2023-01-23T07:45:11.273Z,1032.43
2023-01-23T07:46:11.232Z,1032.42
2023-01-23T07:47:11.145Z,1032.44
2023-01-23T21:14:14.546Z,1033.43
2023-01-23T21:15:14.391Z,1033.40
2023-01-23T21:16:14.395Z,1033.45
2023-01-23T21:17:14.266Z,1033.46
2023-01-23T21:18:14.213Z,1033.38
2023-01-23T21:19:14.156Z,1033.38
2023-01-23T21:20:14.122Z,1033.43
2023-01-23T21:21:14.086Z,1033.43
2023-01-23T21:22:14.003Z,1033.39
2023-01-23T21:23:13.952Z,1033.46
2023-01-23T21:24:14.086Z,1033.48
2023-01-23T21:25:13.856Z,1033.48
2023-01-23T21:26:13.800Z,1033.53
2023-01-23T21:27:13.750Z,1033.51
2023-01-23T21:28:13.740Z,1033.53
2023-01-23T21:29:13.663Z,1033.53
2023-01-23T21:30:13.731Z,1033.50
2023-01-23T21:31:13.704Z,1033.53
2023-01-23T21:32:13.502Z,1033.51
2023-01-23T21:33:13.463Z,1033.47
2023-01-23T21:34:13.407Z,1033.45
2023-01-23T21:35:13.353Z,1033.45
2023-01-23T21:37:13.266Z,1033.48
2023-01-23T21:39:13.175Z,1033.47
2023-01-23T21:40:13.119Z,1033.49
2023-01-23T21:41:13.062Z,1033.50
2023-01-23T21:42:13.013Z,1033.49
2023-01-23T21:43:12.967Z,1033.47
2023-01-23T21:44:12.981Z,1033.51
2023-01-23T21:45:12.870Z,1033.53
2023-01-23T21:46:13.010Z,1033.52
2023-01-23T21:47:12.774Z,1033.44
2023-01-23T21:48:12.731Z,1033.45
2023-01-23T21:49:12.676Z,1033.48
2023-01-23T21:50:12.628Z,1033.44
2023-01-23T21:51:12.605Z,1033.43
2023-01-23T21:52:12.547Z,1033.43
2023-01-23T21:53:12.490Z,1033.44
2023-01-23T21:54:12.453Z,1033.49
2023-01-23T21:55:12.389Z,1033.53
2023-01-23T21:56:12.349Z,1033.46
2023-01-23T21:57:12.295Z,1033.50
2023-01-23T21:58:12.252Z,1033.51
2023-01-23T21:59:12.200Z,1033.46
2023-01-23T22:00:13.758Z,1033.48
2023-01-23T22:01:12.138Z,1033.50
2023-01-23T22:02:12.172Z,1033.44
2023-01-23T22:03:12.006Z,1033.48
2023-01-23T22:04:11.960Z,1033.44
2023-01-23T22:05:11.970Z,1033.49
2023-01-23T22:06:11.864Z,1033.51
2023-01-23T22:07:11.818Z,1033.50
2023-01-23T22:08:11.765Z,1033.58
2023-01-23T22:09:11.719Z,1033.56
2023-01-23T22:10:11.677Z,1033.57
2023-01-23T22:11:11.632Z,1033.54
2023-01-23T22:12:11.573Z,1033.56
2023-01-23T22:13:11.529Z,1033.57
2023-01-23T22:14:11.490Z,1033.57
2023-01-23T22:15:11.445Z,1033.54
2023-01-23T22:16:11.407Z,1033.54
2023-01-23T22:17:11.340Z,1033.52
2023-01-23T22:18:11.402Z,1033.49
2023-01-23T22:19:11.238Z,1033.52
2023-01-23T22:20:11.191Z,1033.55
2023-01-23T22:21:11.148Z,1033.54
2023-01-23T22:22:11.094Z,1033.48
2023-01-23T22:24:36.808Z,1033.51
2023-01-23T22:25:36.762Z,1033.45
2023-01-23T22:26:36.709Z,1033.46
2023-01-23T22:27:36.664Z,1033.48
2023-01-23T22:28:36.614Z,1033.54
2023-01-23T22:29:36.569Z,1033.51
2023-01-23T22:31:36.616Z,1033.50
2023-01-23T22:32:36.424Z,1033.54
2023-01-23T22:33:40.768Z,1033.57
2023-01-23T22:34:36.324Z,1033.55
